sensor_id;sensor_type;location;lat;lon;timestamp;pressure;altitude;pressure_sealevel;temperature;humidity
37206;BME280;23099;42.636;23.198;2022-08-21T00:01:36;91573.22;;;17.97;98.34
37206;BME280;23099;42.636;23.198;2022-08-21T00:04:05;91573.44;;;17.86;98.48
37206;BME280;23099;42.636;23.198;2022-08-21T00:06:32;91563.16;;;17.78;99.71
37206;BME280;23099;42.636;23.198;2022-08-21T00:08:59;91553.69;;;17.70;99.13
37206;BME280;23099;42.636;23.198;2022-08-21T00:11:26;91571.06;;;17.69;99.27
37206;BME280;23099;42.636;23.198;2022-08-21T00:13:55;91558.03;;;17.63;99.92
37206;BME280;23099;42.636;23.198;2022-08-21T00:16:22;91554.53;;;17.63;100.00
37206;BME280;23099;42.636;23.198;2022-08-21T00:18:49;91553.84;;;17.59;100.00
37206;BME280;23099;42.636;23.198;2022-08-21T00:21:16;91547.97;;;17.64;100.00
37206;BME280;23099;42.636;23.198;2022-08-21T00:23:43;91543.63;;;17.70;100.00
37206;BME280;23099;42.636;23.198;2022-08-21T00:26:10;91547.03;;;17.74;100.00
37206;BME280;23099;42.636;23.198;2022-08-21T00:28:37;91543.44;;;17.81;100.00
37206;BME280;23099;42.636;23.198;2022-08-21T00:31:05;91543.22;;;17.72;99.58
37206;BME280;23099;42.636;23.198;2022-08-21T00:33:32;91552.50;;;17.71;99.82
37206;BME280;23099;42.636;23.198;2022-08-21T00:36:00;91555.69;;;17.65;100.00
37206;BME280;23099;42.636;23.198;2022-08-21T00:38:27;91553.00;;;17.62;100.00
37206;BME280;23099;42.636;23.198;2022-08-21T00:40:57;91552.69;;;17.60;100.00
37206;BME280;23099;42.636;23.198;2022-08-21T00:43:27;91551.97;;;17.56;100.00
37206;BME280;23099;42.636;23.198;2022-08-21T00:45:55;91555.22;;;17.47;100.00
37206;BME280;23099;42.636;23.198;2022-08-21T00:48:24;91556.72;;;17.28;100.00
37206;BME280;23099;42.636;23.198;2022-08-21T00:50:55;91543.25;;;17.25;100.00
37206;BME280;23099;42.636;23.198;2022-08-21T00:53:23;91550.59;;;17.24;100.00
37206;BME280;23099;42.636;23.198;2022-08-21T00:55:51;91550.44;;;17.12;100.00
37206;BME280;23099;42.636;23.198;2022-08-21T00:58:19;91556.47;;;17.19;100.00
37206;BME280;23099;42.636;23.198;2022-08-21T01:00:48;91555.19;;;17.27;100.00
37206;BME280;23099;42.636;23.198;2022-08-21T01:03:19;91555.53;;;17.29;100.00
37206;BME280;23099;42.636;23.198;2022-08-21T01:05:48;91540.44;;;17.32;100.00
37206;BME280;23099;42.636;23.198;2022-08-21T01:08:17;91545.31;;;17.41;100.00
37206;BME280;23099;42.636;23.198;2022-08-21T01:10:44;91541.38;;;17.45;100.00
37206;BME280;23099;42.636;23.198;2022-08-21T01:13:14;91538.94;;;17.31;100.00
37206;BME280;23099;42.636;23.198;2022-08-21T01:15:45;91538.38;;;17.40;100.00
37206;BME280;23099;42.636;23.198;2022-08-21T01:18:14;91534.50;;;17.41;100.00
37206;BME280;23099;42.636;23.198;2022-08-21T01:20:45;91521.66;;;17.25;100.00
37206;BME280;23099;42.636;23.198;2022-08-21T01:23:14;91518.50;;;17.30;100.00
37206;BME280;23099;42.636;23.198;2022-08-21T01:25:40;91513.34;;;17.36;100.00
37206;BME280;23099;42.636;23.198;2022-08-21T01:28:12;91513.66;;;17.41;100.00
37206;BME280;23099;42.636;23.198;2022-08-21T01:30:40;91510.44;;;17.46;100.00
37206;BME280;23099;42.636;23.198;2022-08-21T01:33:08;91509.69;;;17.46;100.00
37206;BME280;23099;42.636;23.198;2022-08-21T01:35:36;91515.44;;;17.48;100.00
37206;BME280;23099;42.636;23.198;2022-08-21T01:38:03;91519.41;;;17.43;99.15
37206;BME280;23099;42.636;23.198;2022-08-21T01:40:31;91527.16;;;17.41;99.50
37206;BME280;23099;42.636;23.198;2022-08-21T01:42:57;91521.09;;;17.33;99.66
37206;BME280;23099;42.636;23.198;2022-08-21T01:45:24;91522.41;;;17.25;100.00
37206;BME280;23099;42.636;23.198;2022-08-21T01:47:51;91513.16;;;17.26;100.00
37206;BME280;23099;42.636;23.198;2022-08-21T01:50:19;91518.19;;;17.24;100.00
37206;BME280;23099;42.636;23.198;2022-08-21T01:52:47;91517.91;;;17.19;100.00
37206;BME280;23099;42.636;23.198;2022-08-21T01:55:15;91525.47;;;17.27;100.00
37206;BME280;23099;42.636;23.198;2022-08-21T01:57:45;91515.34;;;17.31;100.00
37206;BME280;23099;42.636;23.198;2022-08-21T02:00:14;91518.00;;;17.35;100.00
37206;BME280;23099;42.636;23.198;2022-08-21T02:02:42;91513.72;;;17.38;100.00
37206;BME280;23099;42.636;23.198;2022-08-21T02:05:10;91520.28;;;17.37;99.11
37206;BME280;23099;42.636;23.198;2022-08-21T02:07:38;91522.22;;;17.36;99.23
37206;BME280;23099;42.636;23.198;2022-08-21T02:10:07;91528.69;;;17.42;99.44
37206;BME280;23099;42.636;23.198;2022-08-21T02:12:34;91526.09;;;17.35;98.63
37206;BME280;23099;42.636;23.198;2022-08-21T02:15:04;91524.41;;;17.21;98.31
37206;BME280;23099;42.636;23.198;2022-08-21T02:17:38;91526.34;;;17.21;99.28
37206;BME280;23099;42.636;23.198;2022-08-21T02:20:06;91529.19;;;17.14;100.00
37206;BME280;23099;42.636;23.198;2022-08-21T02:22:33;91533.53;;;17.08;100.00
37206;BME280;23099;42.636;23.198;2022-08-21T02:24:59;91534.19;;;17.15;100.00
37206;BME280;23099;42.636;23.198;2022-08-21T02:27:26;91529.06;;;17.21;100.00
37206;BME280;23099;42.636;23.198;2022-08-21T02:29:54;91531.63;;;17.28;100.00
37206;BME280;23099;42.636;23.198;2022-08-21T02:32:22;91529.28;;;17.30;99.89
37206;BME280;23099;42.636;23.198;2022-08-21T02:34:49;91532.81;;;17.27;99.73
37206;BME280;23099;42.636;23.198;2022-08-21T02:37:16;91536.56;;;17.33;98.79
37206;BME280;23099;42.636;23.198;2022-08-21T02:39:43;91542.31;;;17.35;98.34
37206;BME280;23099;42.636;23.198;2022-08-21T02:42:09;91537.66;;;17.36;97.83
37206;BME280;23099;42.636;23.198;2022-08-21T02:44:36;91540.72;;;17.38;96.63
37206;BME280;23099;42.636;23.198;2022-08-21T02:47:03;91539.19;;;17.37;95.21
37206;BME280;23099;42.636;23.198;2022-08-21T02:49:31;91535.72;;;17.36;94.95
37206;BME280;23099;42.636;23.198;2022-08-21T02:51:58;91526.09;;;17.35;94.54
37206;BME280;23099;42.636;23.198;2022-08-21T02:54:25;91534.41;;;17.24;92.71
37206;BME280;23099;42.636;23.198;2022-08-21T02:56:52;91545.91;;;17.05;93.71
37206;BME280;23099;42.636;23.198;2022-08-21T02:59:18;91543.03;;;16.92;94.84
37206;BME280;23099;42.636;23.198;2022-08-21T03:01:45;91535.34;;;16.91;96.74
37206;BME280;23099;42.636;23.198;2022-08-21T03:04:12;91538.81;;;16.91;97.04
37206;BME280;23099;42.636;23.198;2022-08-21T03:06:40;91544.72;;;16.83;96.52
37206;BME280;23099;42.636;23.198;2022-08-21T03:09:08;91535.50;;;16.80;97.52
37206;BME280;23099;42.636;23.198;2022-08-21T03:11:34;91534.03;;;16.76;97.81
37206;BME280;23099;42.636;23.198;2022-08-21T03:14:01;91530.28;;;16.70;97.53
37206;BME280;23099;42.636;23.198;2022-08-21T03:16:30;91534.09;;;16.72;98.02
37206;BME280;23099;42.636;23.198;2022-08-21T03:18:57;91529.03;;;16.74;98.36
37206;BME280;23099;42.636;23.198;2022-08-21T03:21:25;91531.69;;;16.78;97.08
37206;BME280;23099;42.636;23.198;2022-08-21T03:23:53;91530.47;;;16.82;97.87
37206;BME280;23099;42.636;23.198;2022-08-21T03:26:19;91534.69;;;16.83;97.70
37206;BME280;23099;42.636;23.198;2022-08-21T03:28:46;91530.81;;;16.84;97.03
37206;BME280;23099;42.636;23.198;2022-08-21T03:31:14;91519.13;;;16.91;97.31
37206;BME280;23099;42.636;23.198;2022-08-21T03:33:40;91519.84;;;16.95;97.38
37206;BME280;23099;42.636;23.198;2022-08-21T03:36:10;91523.25;;;16.99;97.06
37206;BME280;23099;42.636;23.198;2022-08-21T03:38:38;91520.16;;;17.01;97.41
37206;BME280;23099;42.636;23.198;2022-08-21T03:41:07;91518.31;;;16.94;96.58
37206;BME280;23099;42.636;23.198;2022-08-21T03:43:34;91519.44;;;16.96;97.00
37206;BME280;23099;42.636;23.198;2022-08-21T03:46:02;91519.13;;;16.91;97.38
37206;BME280;23099;42.636;23.198;2022-08-21T03:48:29;91517.56;;;16.93;97.59
37206;BME280;23099;42.636;23.198;2022-08-21T03:50:57;91522.59;;;16.91;97.48
37206;BME280;23099;42.636;23.198;2022-08-21T03:53:23;91520.25;;;16.93;96.55
37206;BME280;23099;42.636;23.198;2022-08-21T03:55:51;91516.84;;;16.89;96.33
37206;BME280;23099;42.636;23.198;2022-08-21T03:58:23;91528.09;;;16.88;96.70
37206;BME280;23099;42.636;23.198;2022-08-21T04:00:53;91518.47;;;16.87;96.76
37206;BME280;23099;42.636;23.198;2022-08-21T04:03:20;91530.47;;;16.82;96.87
37206;BME280;23099;42.636;23.198;2022-08-21T04:05:47;91527.31;;;16.87;97.56
37206;BME280;23099;42.636;23.198;2022-08-21T04:08:15;91526.13;;;16.88;98.70
37206;BME280;23099;42.636;23.198;2022-08-21T04:10:45;91535.69;;;16.93;99.21
37206;BME280;23099;42.636;23.198;2022-08-21T04:13:13;91531.41;;;16.95;99.52
37206;BME280;23099;42.636;23.198;2022-08-21T04:15:42;91531.38;;;16.99;99.91
37206;BME280;23099;42.636;23.198;2022-08-21T04:18:09;91537.13;;;17.01;100.00
37206;BME280;23099;42.636;23.198;2022-08-21T04:20:36;91535.09;;;17.05;100.00
37206;BME280;23099;42.636;23.198;2022-08-21T04:23:03;91533.56;;;17.04;100.00
37206;BME280;23099;42.636;23.198;2022-08-21T04:25:30;91538.88;;;17.11;100.00
37206;BME280;23099;42.636;23.198;2022-08-21T04:27:57;91537.28;;;17.14;100.00
37206;BME280;23099;42.636;23.198;2022-08-21T04:30:24;91545.25;;;17.21;100.00
37206;BME280;23099;42.636;23.198;2022-08-21T04:32:53;91544.09;;;17.22;100.00
37206;BME280;23099;42.636;23.198;2022-08-21T04:35:22;91550.31;;;17.19;100.00
37206;BME280;23099;42.636;23.198;2022-08-21T04:37:49;91547.19;;;17.20;100.00
37206;BME280;23099;42.636;23.198;2022-08-21T04:40:17;91542.50;;;17.24;100.00
37206;BME280;23099;42.636;23.198;2022-08-21T04:42:47;91544.09;;;17.22;100.00
37206;BME280;23099;42.636;23.198;2022-08-21T04:45:19;91542.44;;;17.28;100.00
37206;BME280;23099;42.636;23.198;2022-08-21T04:47:48;91545.91;;;17.28;100.00
37206;BME280;23099;42.636;23.198;2022-08-21T04:50:17;91543.97;;;17.29;100.00
37206;BME280;23099;42.636;23.198;2022-08-21T04:52:45;91550.91;;;17.30;100.00
37206;BME280;23099;42.636;23.198;2022-08-21T04:55:13;91547.34;;;17.33;100.00
37206;BME280;23099;42.636;23.198;2022-08-21T04:57:40;91550.34;;;17.39;99.97
37206;BME280;23099;42.636;23.198;2022-08-21T05:00:08;91545.72;;;17.39;100.00
37206;BME280;23099;42.636;23.198;2022-08-21T05:02:41;91554.22;;;17.38;100.00
37206;BME280;23099;42.636;23.198;2022-08-21T05:05:12;91556.59;;;17.12;100.00
37206;BME280;23099;42.636;23.198;2022-08-21T05:07:42;91552.84;;;17.06;100.00
37206;BME280;23099;42.636;23.198;2022-08-21T05:10:11;91556.13;;;16.94;99.84
37206;BME280;23099;42.636;23.198;2022-08-21T05:12:39;91558.88;;;16.90;99.52
37206;BME280;23099;42.636;23.198;2022-08-21T05:15:07;91557.88;;;16.81;99.23
37206;BME280;23099;42.636;23.198;2022-08-21T05:17:34;91556.75;;;16.78;99.36
37206;BME280;23099;42.636;23.198;2022-08-21T05:20:01;91555.75;;;16.69;100.00
37206;BME280;23099;42.636;23.198;2022-08-21T05:22:28;91554.03;;;16.78;100.00
37206;BME280;23099;42.636;23.198;2022-08-21T05:24:57;91550.53;;;16.81;100.00
37206;BME280;23099;42.636;23.198;2022-08-21T05:27:23;91552.78;;;16.86;100.00
37206;BME280;23099;42.636;23.198;2022-08-21T05:29:50;91555.34;;;16.93;100.00
37206;BME280;23099;42.636;23.198;2022-08-21T05:32:17;91552.00;;;16.86;100.00
37206;BME280;23099;42.636;23.198;2022-08-21T05:34:44;91548.81;;;16.68;100.00
37206;BME280;23099;42.636;23.198;2022-08-21T05:37:11;91548.59;;;16.82;100.00
37206;BME280;23099;42.636;23.198;2022-08-21T05:39:38;91546.53;;;16.89;100.00
37206;BME280;23099;42.636;23.198;2022-08-21T05:42:06;91543.78;;;16.93;100.00
37206;BME280;23099;42.636;23.198;2022-08-21T05:44:33;91536.47;;;16.93;100.00
37206;BME280;23099;42.636;23.198;2022-08-21T05:47:03;91540.22;;;17.00;100.00
37206;BME280;23099;42.636;23.198;2022-08-21T05:49:30;91545.53;;;17.03;100.00
37206;BME280;23099;42.636;23.198;2022-08-21T05:51:57;91543.97;;;17.06;100.00
37206;BME280;23099;42.636;23.198;2022-08-21T05:54:24;91550.06;;;17.10;100.00
37206;BME280;23099;42.636;23.198;2022-08-21T05:56:51;91549.44;;;17.02;100.00
37206;BME280;23099;42.636;23.198;2022-08-21T05:59:19;91555.88;;;17.08;100.00
37206;BME280;23099;42.636;23.198;2022-08-21T06:01:46;91545.84;;;17.09;100.00
37206;BME280;23099;42.636;23.198;2022-08-21T06:04:13;91551.56;;;17.14;100.00
37206;BME280;23099;42.636;23.198;2022-08-21T06:06:40;91549.13;;;17.20;100.00
37206;BME280;23099;42.636;23.198;2022-08-21T06:09:07;91543.97;;;17.29;100.00
37206;BME280;23099;42.636;23.198;2022-08-21T06:11:34;91545.78;;;17.36;100.00
37206;BME280;23099;42.636;23.198;2022-08-21T06:14:01;91553.06;;;17.39;100.00
37206;BME280;23099;42.636;23.198;2022-08-21T06:16:29;91543.06;;;17.36;100.00
37206;BME280;23099;42.636;23.198;2022-08-21T06:18:55;91540.31;;;17.39;100.00
37206;BME280;23099;42.636;23.198;2022-08-21T06:21:22;91538.31;;;17.43;100.00
37206;BME280;23099;42.636;23.198;2022-08-21T06:23:49;91539.84;;;17.44;100.00
37206;BME280;23099;42.636;23.198;2022-08-21T06:26:16;91533.28;;;17.45;100.00
37206;BME280;23099;42.636;23.198;2022-08-21T06:28:42;91537.56;;;17.43;100.00
37206;BME280;23099;42.636;23.198;2022-08-21T06:31:12;91541.38;;;17.45;100.00
37206;BME280;23099;42.636;23.198;2022-08-21T06:33:40;91541.84;;;17.40;100.00
37206;BME280;23099;42.636;23.198;2022-08-21T06:36:07;91544.53;;;17.40;100.00
37206;BME280;23099;42.636;23.198;2022-08-21T06:38:34;91545.16;;;17.48;100.00
37206;BME280;23099;42.636;23.198;2022-08-21T06:41:01;91538.31;;;17.43;100.00
37206;BME280;23099;42.636;23.198;2022-08-21T06:43:28;91541.47;;;17.38;100.00
37206;BME280;23099;42.636;23.198;2022-08-21T06:45:55;91535.72;;;17.36;100.00
37206;BME280;23099;42.636;23.198;2022-08-21T06:48:21;91537.97;;;17.41;100.00
37206;BME280;23099;42.636;23.198;2022-08-21T06:50:49;91538.22;;;17.47;100.00
37206;BME280;23099;42.636;23.198;2022-08-21T06:53:18;91540.06;;;17.53;100.00
37206;BME280;23099;42.636;23.198;2022-08-21T06:55:46;91535.25;;;17.61;100.00
37206;BME280;23099;42.636;23.198;2022-08-21T06:58:13;91538.81;;;17.58;99.17
37206;BME280;23099;42.636;23.198;2022-08-21T07:00:42;91536.69;;;17.69;100.00
37206;BME280;23099;42.636;23.198;2022-08-21T07:03:16;91545.25;;;17.87;100.00
37206;BME280;23099;42.636;23.198;2022-08-21T07:05:43;91549.25;;;17.99;100.00
37206;BME280;23099;42.636;23.198;2022-08-21T07:08:11;91547.09;;;18.10;100.00
37206;BME280;23099;42.636;23.198;2022-08-21T07:10:38;91554.72;;;18.15;100.00
37206;BME280;23099;42.636;23.198;2022-08-21T07:13:05;91556.91;;;18.20;100.00
37206;BME280;23099;42.636;23.198;2022-08-21T07:15:32;91548.72;;;18.24;100.00
37206;BME280;23099;42.636;23.198;2022-08-21T07:17:59;91548.50;;;18.34;100.00
37206;BME280;23099;42.636;23.198;2022-08-21T07:20:26;91546.00;;;18.44;100.00
37206;BME280;23099;42.636;23.198;2022-08-21T07:22:54;91544.16;;;18.57;100.00
37206;BME280;23099;42.636;23.198;2022-08-21T07:25:22;91549.44;;;18.64;98.43
37206;BME280;23099;42.636;23.198;2022-08-21T07:27:49;91543.53;;;18.69;97.19
37206;BME280;23099;42.636;23.198;2022-08-21T07:30:16;91544.22;;;18.73;96.70
37206;BME280;23099;42.636;23.198;2022-08-21T07:32:43;91540.56;;;18.80;98.85
37206;BME280;23099;42.636;23.198;2022-08-21T07:35:09;91534.91;;;18.90;100.00
37206;BME280;23099;42.636;23.198;2022-08-21T07:37:37;91535.66;;;19.07;100.00
37206;BME280;23099;42.636;23.198;2022-08-21T07:40:04;91531.28;;;19.13;99.77
37206;BME280;23099;42.636;23.198;2022-08-21T07:42:33;91527.28;;;19.18;100.00
37206;BME280;23099;42.636;23.198;2022-08-21T07:45:00;91528.56;;;19.29;99.99
37206;BME280;23099;42.636;23.198;2022-08-21T07:47:26;91523.19;;;19.42;98.71
37206;BME280;23099;42.636;23.198;2022-08-21T07:49:53;91523.03;;;19.49;97.30
37206;BME280;23099;42.636;23.198;2022-08-21T07:52:20;91518.53;;;19.59;96.93
37206;BME280;23099;42.636;23.198;2022-08-21T07:54:47;91516.97;;;19.74;96.83
37206;BME280;23099;42.636;23.198;2022-08-21T07:57:13;91527.16;;;19.83;95.48
37206;BME280;23099;42.636;23.198;2022-08-21T07:59:42;91522.84;;;19.85;94.06
37206;BME280;23099;42.636;23.198;2022-08-21T08:02:09;91530.34;;;19.94;94.18
37206;BME280;23099;42.636;23.198;2022-08-21T08:04:36;91518.41;;;19.91;94.16
37206;BME280;23099;42.636;23.198;2022-08-21T08:07:03;91519.97;;;20.05;95.25
37206;BME280;23099;42.636;23.198;2022-08-21T08:09:30;91531.28;;;20.16;95.56
37206;BME280;23099;42.636;23.198;2022-08-21T08:11:57;91532.81;;;20.17;94.21
37206;BME280;23099;42.636;23.198;2022-08-21T08:14:23;91529.13;;;20.24;93.75
37206;BME280;23099;42.636;23.198;2022-08-21T08:16:51;91516.97;;;20.28;93.11
37206;BME280;23099;42.636;23.198;2022-08-21T08:19:18;91516.66;;;20.26;91.39
37206;BME280;23099;42.636;23.198;2022-08-21T08:21:45;91519.84;;;20.37;93.38
37206;BME280;23099;42.636;23.198;2022-08-21T08:24:12;91509.31;;;20.39;90.59
37206;BME280;23099;42.636;23.198;2022-08-21T08:26:38;91519.84;;;20.37;90.45
37206;BME280;23099;42.636;23.198;2022-08-21T08:29:05;91524.41;;;20.40;90.18
37206;BME280;23099;42.636;23.198;2022-08-21T08:31:32;91528.75;;;20.51;90.36
37206;BME280;23099;42.636;23.198;2022-08-21T08:34:00;91524.06;;;20.51;91.12
37206;BME280;23099;42.636;23.198;2022-08-21T08:36:32;91534.63;;;20.62;90.93
37206;BME280;23099;42.636;23.198;2022-08-21T08:39:00;91531.25;;;20.70;89.07
37206;BME280;23099;42.636;23.198;2022-08-21T08:41:27;91524.53;;;20.75;89.71
37206;BME280;23099;42.636;23.198;2022-08-21T08:43:59;91527.59;;;20.77;87.50
37206;BME280;23099;42.636;23.198;2022-08-21T08:46:33;91524.19;;;20.86;88.75
37206;BME280;23099;42.636;23.198;2022-08-21T08:49:08;91527.69;;;20.86;87.16
37206;BME280;23099;42.636;23.198;2022-08-21T08:51:42;91528.97;;;20.94;89.53
37206;BME280;23099;42.636;23.198;2022-08-21T08:54:14;91523.22;;;21.05;90.10
37206;BME280;23099;42.636;23.198;2022-08-21T08:56:44;91523.44;;;20.98;87.47
37206;BME280;23099;42.636;23.198;2022-08-21T08:59:16;91513.09;;;21.05;85.65
37206;BME280;23099;42.636;23.198;2022-08-21T09:01:44;91524.28;;;21.07;85.96
37206;BME280;23099;42.636;23.198;2022-08-21T09:04:13;91517.97;;;21.10;85.44
37206;BME280;23099;42.636;23.198;2022-08-21T09:06:55;91515.59;;;21.12;86.86
37206;BME280;23099;42.636;23.198;2022-08-21T09:09:31;91516.66;;;21.28;85.70
37206;BME280;23099;42.636;23.198;2022-08-21T09:12:04;91525.03;;;21.33;83.15
37206;BME280;23099;42.636;23.198;2022-08-21T09:14:53;91515.75;;;21.43;81.98
37206;BME280;23099;42.636;23.198;2022-08-21T09:17:38;91510.28;;;21.56;84.57
37206;BME280;23099;42.636;23.198;2022-08-21T09:20:19;91510.81;;;21.64;83.39
37206;BME280;23099;42.636;23.198;2022-08-21T09:22:56;91508.09;;;21.64;80.84
37206;BME280;23099;42.636;23.198;2022-08-21T09:25:28;91510.00;;;21.76;81.50
37206;BME280;23099;42.636;23.198;2022-08-21T09:27:57;91502.34;;;21.83;80.17
37206;BME280;23099;42.636;23.198;2022-08-21T09:30:27;91507.66;;;21.87;79.59
37206;BME280;23099;42.636;23.198;2022-08-21T09:32:55;91501.66;;;21.92;81.31
37206;BME280;23099;42.636;23.198;2022-08-21T09:35:23;91498.72;;;21.86;80.92
37206;BME280;23099;42.636;23.198;2022-08-21T09:37:54;91503.53;;;21.82;80.35
37206;BME280;23099;42.636;23.198;2022-08-21T09:40:33;91496.47;;;21.85;80.54
37206;BME280;23099;42.636;23.198;2022-08-21T09:43:04;91490.69;;;21.83;80.05
37206;BME280;23099;42.636;23.198;2022-08-21T09:45:32;91497.09;;;21.89;80.04
37206;BME280;23099;42.636;23.198;2022-08-21T09:48:14;91494.97;;;22.06;77.65
37206;BME280;23099;42.636;23.198;2022-08-21T09:50:43;91494.47;;;22.20;77.58
37206;BME280;23099;42.636;23.198;2022-08-21T09:53:18;91495.69;;;22.28;77.71
37206;BME280;23099;42.636;23.198;2022-08-21T09:55:52;91499.06;;;22.32;75.35
37206;BME280;23099;42.636;23.198;2022-08-21T09:58:39;91495.16;;;22.42;77.75
37206;BME280;23099;42.636;23.198;2022-08-21T10:01:11;91488.06;;;22.45;75.56
37206;BME280;23099;42.636;23.198;2022-08-21T10:03:38;91487.78;;;22.52;75.03
37206;BME280;23099;42.636;23.198;2022-08-21T10:06:09;91488.63;;;22.62;75.26
37206;BME280;23099;42.636;23.198;2022-08-21T10:08:38;91479.78;;;22.79;76.52
37206;BME280;23099;42.636;23.198;2022-08-21T10:11:09;91482.53;;;22.98;74.75
37206;BME280;23099;42.636;23.198;2022-08-21T10:13:49;91480.47;;;23.11;71.89
37206;BME280;23099;42.636;23.198;2022-08-21T10:16:28;91474.59;;;23.31;71.13
37206;BME280;23099;42.636;23.198;2022-08-21T10:19:09;91473.97;;;23.26;70.42
37206;BME280;23099;42.636;23.198;2022-08-21T10:21:45;91463.09;;;23.36;72.73
37206;BME280;23099;42.636;23.198;2022-08-21T10:24:22;91462.94;;;23.30;71.78
37206;BME280;23099;42.636;23.198;2022-08-21T10:26:57;91463.38;;;23.38;72.88
37206;BME280;23099;42.636;23.198;2022-08-21T10:29:39;91459.78;;;23.68;72.71
37206;BME280;23099;42.636;23.198;2022-08-21T10:32:29;91453.41;;;23.98;72.84
37206;BME280;23099;42.636;23.198;2022-08-21T10:35:08;91448.66;;;24.17;67.82
37206;BME280;23099;42.636;23.198;2022-08-21T10:37:56;91454.69;;;24.40;67.84
37206;BME280;23099;42.636;23.198;2022-08-21T10:40:29;91447.38;;;24.55;66.59
37206;BME280;23099;42.636;23.198;2022-08-21T10:43:13;91442.28;;;24.81;69.64
37206;BME280;23099;42.636;23.198;2022-08-21T10:45:50;91446.09;;;25.07;67.76
37206;BME280;23099;42.636;23.198;2022-08-21T10:48:25;91436.38;;;25.30;64.30
37206;BME280;23099;42.636;23.198;2022-08-21T10:50:59;91430.97;;;25.45;62.76
37206;BME280;23099;42.636;23.198;2022-08-21T10:53:45;91428.97;;;25.69;64.96
37206;BME280;23099;42.636;23.198;2022-08-21T10:56:17;91430.81;;;25.87;62.91
37206;BME280;23099;42.636;23.198;2022-08-21T10:58:51;91434.44;;;26.08;59.33
37206;BME280;23099;42.636;23.198;2022-08-21T11:01:27;91424.97;;;26.09;57.61
37206;BME280;23099;42.636;23.198;2022-08-21T11:04:07;91427.34;;;26.16;59.38
37206;BME280;23099;42.636;23.198;2022-08-21T11:06:37;91418.69;;;26.32;60.20
37206;BME280;23099;42.636;23.198;2022-08-21T11:09:11;91417.44;;;26.48;59.80
37206;BME280;23099;42.636;23.198;2022-08-21T11:11:41;91412.69;;;26.63;59.01
37206;BME280;23099;42.636;23.198;2022-08-21T11:14:19;91417.34;;;26.92;59.92
37206;BME280;23099;42.636;23.198;2022-08-21T11:16:53;91404.44;;;27.13;59.69
37206;BME280;23099;42.636;23.198;2022-08-21T11:19:28;91400.00;;;27.35;57.88
37206;BME280;23099;42.636;23.198;2022-08-21T11:22:04;91400.28;;;27.37;56.25
37206;BME280;23099;42.636;23.198;2022-08-21T11:24:41;91409.13;;;27.47;57.07
37206;BME280;23099;42.636;23.198;2022-08-21T11:27:21;91404.81;;;27.61;55.73
37206;BME280;23099;42.636;23.198;2022-08-21T11:29:53;91400.44;;;27.69;55.95
37206;BME280;23099;42.636;23.198;2022-08-21T11:32:43;91402.09;;;27.61;56.54
37206;BME280;23099;42.636;23.198;2022-08-21T11:35:19;91402.47;;;27.54;55.19
37206;BME280;23099;42.636;23.198;2022-08-21T11:37:58;91403.78;;;27.38;56.68
37206;BME280;23099;42.636;23.198;2022-08-21T11:40:41;91403.53;;;27.01;54.57
37206;BME280;23099;42.636;23.198;2022-08-21T11:43:13;91402.41;;;26.93;56.01
37206;BME280;23099;42.636;23.198;2022-08-21T11:45:45;91400.34;;;26.53;55.32
37206;BME280;23099;42.636;23.198;2022-08-21T11:48:27;91399.94;;;26.45;57.84
37206;BME280;23099;42.636;23.198;2022-08-21T11:51:05;91410.72;;;26.19;57.11
37206;BME280;23099;42.636;23.198;2022-08-21T11:53:37;91402.59;;;26.10;57.96
37206;BME280;23099;42.636;23.198;2022-08-21T11:56:12;91397.03;;;26.04;58.17
37206;BME280;23099;42.636;23.198;2022-08-21T11:58:45;91383.97;;;25.99;59.95
37206;BME280;23099;42.636;23.198;2022-08-21T12:01:17;91377.75;;;25.84;60.11
37206;BME280;23099;42.636;23.198;2022-08-21T12:03:54;91381.31;;;25.76;60.21
37206;BME280;23099;42.636;23.198;2022-08-21T12:06:29;91378.81;;;25.48;60.51
37206;BME280;23099;42.636;23.198;2022-08-21T12:08:58;91377.59;;;25.25;59.09
37206;BME280;23099;42.636;23.198;2022-08-21T12:11:27;91377.97;;;25.18;61.81
37206;BME280;23099;42.636;23.198;2022-08-21T12:13:58;91369.88;;;25.00;61.82
37206;BME280;23099;42.636;23.198;2022-08-21T12:16:30;91379.75;;;24.97;61.75
37206;BME280;23099;42.636;23.198;2022-08-21T12:19:03;91387.41;;;24.84;62.49
37206;BME280;23099;42.636;23.198;2022-08-21T12:21:30;91390.25;;;24.66;60.07
37206;BME280;23099;42.636;23.198;2022-08-21T12:24:05;91385.88;;;24.59;63.65
37206;BME280;23099;42.636;23.198;2022-08-21T12:26:50;91386.81;;;24.56;63.12
37206;BME280;23099;42.636;23.198;2022-08-21T12:29:23;91381.59;;;24.35;61.92
37206;BME280;23099;42.636;23.198;2022-08-21T12:31:59;91381.00;;;24.21;62.50
37206;BME280;23099;42.636;23.198;2022-08-21T12:34:32;91387.88;;;24.08;63.80
37206;BME280;23099;42.636;23.198;2022-08-21T12:37:03;91388.34;;;24.06;63.48
37206;BME280;23099;42.636;23.198;2022-08-21T12:39:32;91382.41;;;24.08;63.47
37206;BME280;23099;42.636;23.198;2022-08-21T12:42:06;91386.25;;;23.92;63.76
37206;BME280;23099;42.636;23.198;2022-08-21T12:44:38;91384.59;;;23.76;63.92
37206;BME280;23099;42.636;23.198;2022-08-21T12:47:14;91393.41;;;23.71;65.20
37206;BME280;23099;42.636;23.198;2022-08-21T12:49:51;91385.66;;;23.70;65.11
37206;BME280;23099;42.636;23.198;2022-08-21T12:52:22;91382.34;;;23.56;64.03
37206;BME280;23099;42.636;23.198;2022-08-21T12:54:49;91388.09;;;23.49;65.85
37206;BME280;23099;42.636;23.198;2022-08-21T12:57:23;91386.44;;;23.52;66.33
37206;BME280;23099;42.636;23.198;2022-08-21T12:59:53;91384.78;;;23.36;66.74